createdAt,value
2018-09-26T00:01:05.331Z,3.72
2018-09-26T00:03:37.665Z,3.52
2018-09-26T00:06:07.053Z,4.30
2018-09-26T00:08:36.373Z,4.03
2018-09-26T00:11:05.653Z,4.22
2018-09-26T00:13:34.952Z,4.42
2018-09-26T00:16:04.242Z,4.70
2018-09-26T00:18:33.553Z,3.85
2018-09-26T00:21:02.832Z,4.30
2018-09-26T00:23:32.314Z,4.10
2018-09-26T00:26:01.640Z,3.45
2018-09-26T00:28:30.940Z,3.20
2018-09-26T00:31:00.259Z,2.83
2018-09-26T00:33:29.601Z,3.45
2018-09-26T00:35:58.911Z,3.02
2018-09-26T00:38:28.212Z,3.35
2018-09-26T00:40:57.497Z,2.83
2018-09-26T00:43:26.849Z,2.62
2018-09-26T00:45:56.169Z,3.22
2018-09-26T00:48:25.414Z,3.40
2018-09-26T00:50:54.720Z,3.35
2018-09-26T00:53:24.026Z,3.53
2018-09-26T00:55:53.337Z,3.25
2018-09-26T00:58:22.626Z,3.47
2018-09-26T01:00:51.968Z,3.08
2018-09-26T01:03:21.302Z,3.33
2018-09-26T01:05:50.623Z,3.40
2018-09-26T01:08:19.948Z,3.22
2018-09-26T01:10:49.297Z,3.50
2018-09-26T01:13:18.606Z,3.70
2018-09-26T01:15:47.918Z,3.40
2018-09-26T01:18:17.183Z,3.67
2018-09-26T01:20:46.500Z,4.10
2018-09-26T01:23:15.777Z,3.55
2018-09-26T01:25:45.098Z,4.00
2018-09-26T01:28:14.378Z,3.35
2018-09-26T01:30:43.769Z,3.70
2018-09-26T01:33:13.029Z,3.98
2018-09-26T01:35:42.337Z,4.55
2018-09-26T01:38:11.622Z,4.40
2018-09-26T01:40:40.912Z,4.17
2018-09-26T01:43:10.169Z,4.65
2018-09-26T01:45:39.477Z,5.87
2018-09-26T01:48:08.752Z,6.00
2018-09-26T01:50:38.042Z,5.45
2018-09-26T01:53:07.369Z,4.87
2018-09-26T01:55:36.723Z,4.65
2018-09-26T01:58:06.014Z,4.70
2018-09-26T02:00:35.405Z,4.25
2018-09-26T02:03:04.746Z,4.33
2018-09-26T02:05:34.084Z,4.03
2018-09-26T02:08:03.514Z,4.78
2018-09-26T02:10:32.792Z,4.20
2018-09-26T02:13:02.092Z,4.42
2018-09-26T02:15:31.393Z,4.55
2018-09-26T02:18:00.725Z,4.67
2018-09-26T02:20:30.044Z,4.78
2018-09-26T02:22:59.365Z,5.10
2018-09-26T02:25:28.845Z,5.15
2018-09-26T02:27:58.166Z,4.25
2018-09-26T02:30:27.487Z,4.05
2018-09-26T02:32:56.839Z,3.87
2018-09-26T02:35:26.109Z,4.30
2018-09-26T02:37:55.409Z,4.17
2018-09-26T02:40:24.709Z,4.95
2018-09-26T02:42:54.010Z,4.33
2018-09-26T02:45:23.304Z,4.70
2018-09-26T02:47:52.608Z,5.03
2018-09-26T02:50:21.906Z,4.42
2018-09-26T02:52:51.251Z,4.00
2018-09-26T02:55:20.536Z,5.05
2018-09-26T02:57:49.850Z,5.62
2018-09-26T03:00:19.154Z,3.83
2018-09-26T03:02:48.503Z,4.58
2018-09-26T03:05:17.842Z,4.40
2018-09-26T03:07:47.127Z,4.40
2018-09-26T03:10:16.428Z,4.45
2018-09-26T03:12:45.729Z,4.67
2018-09-26T03:15:15.029Z,4.08
2018-09-26T03:17:44.409Z,3.80
2018-09-26T03:20:13.713Z,4.22
2018-09-26T03:22:43.027Z,4.45
2018-09-26T03:25:12.341Z,3.90
2018-09-26T03:27:41.643Z,4.15
2018-09-26T03:30:10.949Z,3.60
2018-09-26T03:32:40.245Z,3.85
2018-09-26T03:35:09.568Z,3.98
2018-09-26T03:37:38.920Z,3.50
2018-09-26T03:40:08.246Z,3.67
2018-09-26T03:42:37.538Z,3.42
2018-09-26T03:45:19.172Z,3.05
2018-09-26T03:47:48.454Z,2.92
2018-09-26T03:50:17.777Z,3.30
2018-09-26T03:52:47.067Z,3.40
2018-09-26T03:55:16.401Z,3.92
2018-09-26T03:57:45.709Z,3.30
2018-09-26T04:00:15.050Z,3.77
2018-09-26T04:02:44.358Z,3.30
2018-09-26T04:05:13.657Z,3.30
2018-09-26T04:07:43.077Z,2.70
2018-09-26T04:10:12.402Z,4.05
2018-09-26T04:12:41.777Z,3.40
2018-09-26T04:15:10.984Z,3.12
2018-09-26T04:17:40.283Z,3.40
2018-09-26T04:20:09.549Z,3.85
2018-09-26T04:22:38.833Z,3.40
2018-09-26T04:25:08.154Z,3.30
2018-09-26T04:27:37.518Z,3.27
2018-09-26T04:30:06.812Z,3.20
2018-09-26T04:32:36.202Z,3.12
2018-09-26T04:35:05.546Z,3.12
2018-09-26T04:37:34.852Z,3.10
2018-09-26T04:40:04.077Z,2.92
2018-09-26T04:42:33.417Z,3.75
2018-09-26T04:45:02.695Z,6.12
2018-09-26T04:47:32.014Z,14.20
2018-09-26T04:50:01.240Z,8.15
2018-09-26T04:52:30.537Z,6.83
2018-09-26T04:54:59.934Z,6.12
2018-09-26T04:57:29.251Z,6.85
2018-09-26T04:59:58.518Z,5.85
2018-09-26T05:02:27.872Z,5.30
2018-09-26T05:04:57.148Z,5.30
2018-09-26T05:07:26.709Z,5.05
2018-09-26T05:09:55.968Z,5.35
2018-09-26T05:12:25.303Z,5.17
2018-09-26T05:14:54.605Z,4.53
2018-09-26T05:17:23.885Z,4.90
2018-09-26T05:19:53.172Z,5.45
2018-09-26T05:22:22.428Z,5.22
2018-09-26T05:24:51.726Z,6.20
2018-09-26T05:27:21.022Z,6.45
2018-09-26T05:29:50.314Z,6.35
2018-09-26T05:32:19.572Z,6.12
2018-09-26T05:34:48.918Z,5.05
2018-09-26T05:37:18.169Z,4.70
2018-09-26T05:39:47.480Z,4.80
2018-09-26T05:42:16.776Z,4.72
2018-09-26T05:44:46.060Z,5.85
2018-09-26T05:47:15.453Z,7.53
2018-09-26T05:49:44.777Z,8.70
2018-09-26T05:52:14.066Z,6.37
2018-09-26T05:54:43.425Z,6.15
2018-09-26T05:57:12.778Z,9.68
2018-09-26T05:59:42.159Z,11.12
2018-09-26T06:02:11.409Z,6.90
2018-09-26T06:04:40.714Z,6.87
2018-09-26T06:07:10.024Z,7.28
2018-09-26T06:09:39.338Z,8.90
2018-09-26T06:12:08.590Z,9.75
2018-09-26T06:14:37.904Z,9.95
2018-09-26T06:17:07.177Z,8.28
2018-09-26T06:19:36.474Z,7.60
2018-09-26T06:22:05.749Z,4.50
2018-09-26T06:24:35.076Z,4.90
2018-09-26T06:27:05.962Z,4.15
2018-09-26T06:29:37.380Z,9.65
2018-09-26T06:32:08.040Z,6.55
2018-09-26T06:34:39.308Z,4.75
2018-09-26T06:37:08.811Z,4.45
2018-09-26T06:39:38.059Z,3.67
2018-09-26T06:42:07.402Z,4.80
2018-09-26T06:44:36.673Z,3.90
2018-09-26T06:47:06.027Z,4.40
2018-09-26T06:49:35.304Z,3.83
2018-09-26T06:52:04.644Z,4.37
2018-09-26T06:54:33.924Z,4.10
2018-09-26T06:57:03.235Z,3.67
2018-09-26T06:59:32.526Z,3.67
2018-09-26T07:02:01.866Z,3.40
2018-09-26T07:04:31.177Z,4.50
2018-09-26T07:07:00.489Z,3.57
2018-09-26T07:09:29.798Z,4.20
2018-09-26T07:11:59.127Z,3.10
2018-09-26T07:14:28.404Z,3.20
2018-09-26T07:16:57.721Z,3.03
2018-09-26T07:19:26.980Z,3.30
2018-09-26T07:21:56.295Z,2.80
2018-09-26T07:24:25.581Z,2.90
2018-09-26T07:26:54.861Z,3.60
2018-09-26T07:29:24.237Z,3.43
2018-09-26T07:31:53.511Z,3.10
2018-09-26T07:34:27.828Z,3.10
2018-09-26T07:36:57.165Z,3.53
2018-09-26T07:39:26.480Z,3.33
2018-09-26T07:41:55.765Z,2.90
2018-09-26T07:44:25.106Z,2.80
2018-09-26T07:46:54.466Z,3.67
2018-09-26T07:49:23.753Z,3.40
2018-09-26T07:51:53.029Z,2.67
2018-09-26T07:54:22.403Z,2.80
2018-09-26T07:56:51.721Z,2.93
2018-09-26T07:59:21.018Z,2.77
2018-09-26T08:01:50.295Z,3.17
2018-09-26T08:04:19.641Z,2.77
2018-09-26T08:06:48.942Z,3.40
2018-09-26T08:09:18.261Z,3.00
2018-09-26T08:11:47.627Z,3.17
2018-09-26T08:14:16.881Z,3.03
2018-09-26T08:16:46.182Z,2.67
2018-09-26T08:19:15.486Z,3.00
2018-09-26T08:21:44.741Z,3.03
2018-09-26T08:24:14.055Z,2.70
2018-09-26T08:26:43.338Z,2.77
2018-09-26T08:29:12.586Z,2.60
2018-09-26T08:31:41.936Z,2.50
2018-09-26T08:34:11.217Z,2.40
2018-09-26T08:36:41.419Z,2.23
2018-09-26T08:39:12.337Z,2.50
2018-09-26T08:41:41.708Z,2.63
2018-09-26T08:44:11.629Z,3.13
2018-09-26T08:46:41.015Z,2.10
2018-09-26T08:49:10.338Z,2.33
2018-09-26T08:51:39.645Z,2.27
2018-09-26T08:54:08.972Z,2.60
2018-09-26T08:56:38.270Z,2.03
2018-09-26T08:59:07.561Z,2.50
2018-09-26T09:01:41.961Z,2.00
2018-09-26T09:04:11.289Z,2.50
2018-09-26T09:06:40.711Z,2.23
2018-09-26T09:09:10.009Z,2.10
2018-09-26T09:11:39.420Z,2.37
2018-09-26T09:14:08.727Z,2.00
2018-09-26T09:16:38.037Z,2.77
2018-09-26T09:19:07.301Z,2.10
2018-09-26T09:21:36.689Z,2.30
2018-09-26T09:24:05.980Z,2.03
2018-09-26T09:26:35.281Z,2.30
2018-09-26T09:29:04.601Z,2.30
2018-09-26T09:31:33.898Z,1.90
2018-09-26T09:34:03.199Z,1.67
2018-09-26T09:36:32.490Z,1.60
2018-09-26T09:39:01.781Z,1.80
2018-09-26T09:41:31.092Z,1.57
2018-09-26T09:44:00.377Z,1.63
2018-09-26T09:46:29.686Z,1.70
2018-09-26T09:48:58.949Z,1.53
2018-09-26T09:51:28.242Z,1.53
2018-09-26T09:53:57.524Z,1.43
2018-09-26T09:56:26.881Z,1.53
2018-09-26T09:58:56.125Z,1.70
2018-09-26T10:01:27.154Z,1.50
2018-09-26T10:03:57.593Z,1.70
2018-09-26T10:06:26.969Z,1.50
2018-09-26T10:08:56.461Z,1.40
2018-09-26T10:11:25.742Z,1.40
2018-09-26T10:13:55.017Z,1.43
2018-09-26T10:16:24.228Z,1.60
2018-09-26T10:18:53.468Z,1.53
2018-09-26T10:21:22.721Z,1.60
2018-09-26T10:23:52.001Z,1.60
2018-09-26T10:26:21.331Z,1.30
2018-09-26T10:28:50.691Z,1.73
2018-09-26T10:31:20.017Z,1.83
2018-09-26T10:33:49.304Z,1.20
2018-09-26T10:36:18.603Z,1.30
2018-09-26T10:38:47.926Z,1.30
2018-09-26T10:41:17.225Z,1.40
2018-09-26T10:43:46.524Z,1.43
2018-09-26T10:46:15.834Z,1.63
2018-09-26T10:48:45.153Z,1.50
2018-09-26T10:51:14.441Z,1.57
2018-09-26T10:53:43.773Z,1.57
2018-09-26T10:56:13.188Z,1.50
2018-09-26T10:58:42.469Z,1.43
2018-09-26T11:01:11.745Z,1.50
2018-09-26T11:03:41.082Z,1.40
2018-09-26T11:06:10.356Z,1.30
2018-09-26T11:08:39.618Z,1.30
2018-09-26T11:11:09.002Z,1.40
2018-09-26T11:13:38.300Z,1.40
2018-09-26T11:16:07.916Z,1.30
2018-09-26T11:18:37.245Z,1.40
2018-09-26T11:21:06.622Z,1.50
2018-09-26T11:23:35.993Z,1.20
2018-09-26T11:26:05.321Z,1.40
2018-09-26T11:28:34.570Z,1.27
2018-09-26T11:31:03.832Z,1.50
2018-09-26T11:33:33.135Z,1.40
2018-09-26T11:36:02.446Z,1.43
2018-09-26T11:38:31.709Z,1.60
2018-09-26T11:41:00.987Z,1.50
2018-09-26T11:43:30.284Z,1.40
2018-09-26T11:45:59.607Z,1.30
2018-09-26T11:48:28.878Z,1.53
2018-09-26T11:50:58.155Z,1.30
2018-09-26T11:53:27.489Z,1.57
2018-09-26T11:55:56.887Z,1.70
2018-09-26T11:58:26.216Z,1.50
2018-09-26T12:00:55.417Z,1.53
2018-09-26T12:03:24.739Z,1.60
2018-09-26T12:05:54.056Z,1.50
2018-09-26T12:08:23.348Z,1.43
2018-09-26T12:10:52.673Z,1.67
2018-09-26T12:13:21.973Z,1.40
2018-09-26T12:15:51.258Z,1.30
2018-09-26T12:18:20.624Z,1.60
2018-09-26T12:20:49.920Z,1.40
2018-09-26T12:23:19.231Z,1.50
2018-09-26T12:25:48.497Z,1.40
2018-09-26T12:28:17.887Z,1.60
2018-09-26T12:30:47.105Z,1.40
2018-09-26T12:33:16.381Z,1.20
2018-09-26T12:35:45.671Z,1.40
2018-09-26T12:38:15.000Z,1.37
2018-09-26T12:40:44.280Z,1.60
2018-09-26T12:43:13.567Z,1.20
2018-09-26T12:45:42.848Z,1.43
2018-09-26T12:48:12.451Z,1.30
2018-09-26T12:50:41.689Z,1.30
2018-09-26T12:53:10.993Z,1.23
2018-09-26T12:55:40.409Z,1.20
2018-09-26T12:58:09.765Z,1.20
2018-09-26T13:00:39.133Z,1.27
2018-09-26T13:03:08.366Z,1.30
2018-09-26T13:05:37.661Z,1.27
2018-09-26T13:08:07.019Z,1.30
2018-09-26T13:10:36.357Z,1.53
2018-09-26T13:13:05.628Z,1.13
2018-09-26T13:15:34.940Z,1.10
2018-09-26T13:18:04.256Z,1.43
2018-09-26T13:20:33.521Z,1.40
2018-09-26T13:23:02.760Z,1.83
2018-09-26T13:25:32.142Z,1.80
2018-09-26T13:28:01.337Z,1.50
2018-09-26T13:30:30.633Z,1.20
2018-09-26T13:32:59.873Z,1.20
2018-09-26T13:35:29.163Z,1.33
2018-09-26T13:37:58.388Z,1.20
2018-09-26T13:40:27.761Z,1.30
2018-09-26T13:42:56.981Z,2.17
2018-09-26T13:45:26.242Z,2.00
2018-09-26T13:47:55.528Z,1.33
2018-09-26T13:50:24.886Z,1.97
2018-09-26T13:52:54.168Z,1.40
2018-09-26T13:55:23.410Z,1.40
2018-09-26T13:57:52.698Z,1.50
2018-09-26T14:00:22.032Z,1.80
2018-09-26T14:02:51.318Z,1.60
2018-09-26T14:05:20.550Z,1.60
2018-09-26T14:07:49.830Z,1.40
2018-09-26T14:10:19.082Z,1.80
2018-09-26T14:12:48.362Z,1.63
2018-09-26T14:15:17.611Z,1.30
2018-09-26T14:17:46.889Z,1.70
2018-09-26T14:20:32.433Z,1.60
2018-09-26T14:23:07.587Z,1.37
2018-09-26T14:25:36.925Z,1.50
2018-09-26T14:28:06.424Z,1.40
2018-09-26T14:30:36.039Z,1.40
2018-09-26T14:33:05.314Z,1.20
2018-09-26T14:35:34.697Z,1.60
2018-09-26T14:38:04.120Z,1.20
2018-09-26T14:40:33.578Z,1.63
2018-09-26T14:43:02.989Z,1.83
2018-09-26T14:45:32.483Z,1.67
2018-09-26T14:48:01.894Z,1.57
2018-09-26T14:50:31.309Z,1.43
2018-09-26T14:53:00.753Z,1.70
2018-09-26T14:55:30.340Z,1.50
2018-09-26T14:57:59.821Z,1.70
2018-09-26T15:00:29.192Z,1.80
2018-09-26T15:02:58.638Z,1.90
2018-09-26T15:05:28.033Z,1.57
2018-09-26T15:07:57.432Z,1.80
2018-09-26T15:10:26.859Z,1.87
2018-09-26T15:12:56.209Z,3.00
2018-09-26T15:15:25.625Z,2.50
2018-09-26T15:17:54.991Z,1.77
2018-09-26T15:20:24.512Z,1.83
2018-09-26T15:22:53.831Z,1.80
2018-09-26T15:25:23.348Z,1.57
2018-09-26T15:27:53.621Z,2.13
2018-09-26T15:30:23.291Z,1.60
2018-09-26T15:32:52.609Z,1.50
2018-09-26T15:35:22.210Z,1.40
2018-09-26T15:37:51.659Z,1.60
2018-09-26T15:40:21.102Z,1.63
2018-09-26T15:42:50.522Z,1.90
2018-09-26T15:45:19.957Z,3.10
2018-09-26T15:47:49.338Z,1.67
2018-09-26T15:50:18.841Z,1.67
2018-09-26T15:52:48.189Z,1.73
2018-09-26T15:55:17.680Z,1.60
2018-09-26T15:57:47.058Z,1.80
2018-09-26T16:00:16.551Z,1.60
2018-09-26T16:02:45.899Z,1.30
2018-09-26T16:05:15.286Z,1.50
2018-09-26T16:07:44.656Z,1.70
2018-09-26T16:10:14.037Z,1.77
2018-09-26T16:12:43.302Z,1.70
2018-09-26T16:15:12.578Z,1.70
2018-09-26T16:17:41.854Z,1.60
2018-09-26T16:20:11.229Z,1.80
2018-09-26T16:22:40.510Z,1.70
2018-09-26T16:25:10.061Z,1.60
2018-09-26T16:27:39.357Z,1.73
2018-09-26T16:30:08.940Z,1.50
2018-09-26T16:32:38.242Z,1.43
2018-09-26T16:35:07.743Z,1.43
2018-09-26T16:37:37.001Z,2.57
2018-09-26T16:40:06.301Z,2.27
2018-09-26T16:42:35.596Z,2.50
2018-09-26T16:45:05.877Z,2.30
2018-09-26T16:47:35.188Z,2.10
2018-09-26T16:50:04.491Z,1.90
2018-09-26T16:52:33.777Z,2.77
2018-09-26T16:55:03.049Z,2.50
2018-09-26T16:57:32.418Z,2.67
2018-09-26T17:00:01.688Z,1.87
2018-09-26T17:02:31.020Z,2.40
2018-09-26T17:05:00.333Z,2.03
2018-09-26T17:07:29.657Z,2.10
2018-09-26T17:09:58.921Z,2.37
2018-09-26T17:12:28.210Z,2.50
2018-09-26T17:14:57.449Z,2.37
2018-09-26T17:17:26.753Z,2.10
2018-09-26T17:19:56.024Z,2.40
2018-09-26T17:22:25.354Z,2.17
2018-09-26T17:24:54.637Z,3.70
2018-09-26T17:27:23.915Z,4.37
2018-09-26T17:29:53.216Z,4.50
2018-09-26T17:32:22.801Z,5.47
2018-09-26T17:34:52.037Z,6.67
2018-09-26T17:37:21.361Z,5.60
2018-09-26T17:39:50.608Z,4.50
2018-09-26T17:42:19.984Z,12.60
2018-09-26T17:44:49.259Z,7.13
2018-09-26T17:47:18.497Z,3.50
2018-09-26T17:49:47.822Z,2.67
2018-09-26T17:52:17.183Z,2.17
2018-09-26T17:54:46.611Z,2.30
2018-09-26T17:57:15.541Z,2.50
2018-09-26T17:59:44.803Z,2.20
2018-09-26T18:02:14.082Z,2.10
2018-09-26T18:04:43.403Z,2.67
2018-09-26T18:07:12.699Z,4.07
2018-09-26T18:09:42.016Z,3.40
2018-09-26T18:12:11.306Z,3.40
2018-09-26T18:14:40.598Z,3.20
2018-09-26T18:17:09.888Z,5.33
2018-09-26T18:19:39.187Z,4.90
2018-09-26T18:22:08.467Z,4.70
2018-09-26T18:24:37.784Z,4.90
2018-09-26T18:27:07.222Z,3.90
2018-09-26T18:29:36.810Z,5.73
2018-09-26T18:32:06.130Z,4.50
2018-09-26T18:34:35.445Z,4.87
2018-09-26T18:37:04.717Z,5.73
2018-09-26T18:39:34.033Z,5.30
2018-09-26T18:42:03.327Z,4.53
2018-09-26T18:44:32.709Z,3.13
2018-09-26T18:47:02.018Z,2.90
2018-09-26T18:49:31.371Z,2.90
2018-09-26T18:52:00.694Z,2.57
2018-09-26T18:54:30.400Z,2.77
2018-09-26T18:56:59.820Z,3.63
2018-09-26T18:59:29.100Z,4.00
2018-09-26T19:01:58.434Z,3.80
2018-09-26T19:04:27.745Z,4.17
2018-09-26T19:06:57.089Z,3.47
2018-09-26T19:09:26.375Z,4.30
2018-09-26T19:11:55.709Z,4.10
2018-09-26T19:14:25.005Z,3.97
2018-09-26T19:16:54.325Z,3.53
2018-09-26T19:19:23.590Z,3.43
2018-09-26T19:21:52.891Z,3.03
2018-09-26T19:24:22.218Z,3.00
2018-09-26T19:26:51.713Z,2.83
2018-09-26T19:29:20.988Z,3.00
2018-09-26T19:31:50.444Z,3.13
2018-09-26T19:34:19.734Z,4.50
2018-09-26T19:36:49.074Z,4.37
2018-09-26T19:39:18.340Z,4.40
2018-09-26T19:41:47.686Z,3.70
2018-09-26T19:44:16.952Z,3.50
2018-09-26T19:46:46.281Z,3.17
2018-09-26T19:49:15.529Z,3.47
2018-09-26T19:51:44.828Z,3.10
2018-09-26T19:54:14.079Z,3.40
2018-09-26T19:56:43.395Z,4.00
2018-09-26T19:59:12.820Z,3.63
2018-09-26T20:01:42.125Z,3.93
2018-09-26T20:04:11.452Z,4.77
2018-09-26T20:06:40.696Z,3.83
2018-09-26T20:09:11.621Z,3.97
2018-09-26T20:11:41.292Z,4.40
2018-09-26T20:14:10.687Z,4.63
2018-09-26T20:16:40.303Z,4.83
2018-09-26T20:19:09.688Z,3.70
2018-09-26T20:21:39.025Z,4.60
2018-09-26T20:24:08.341Z,4.30
2018-09-26T20:26:37.754Z,3.57
2018-09-26T20:29:07.232Z,3.90
2018-09-26T20:31:36.729Z,4.90
2018-09-26T20:34:05.998Z,4.50
2018-09-26T20:36:35.278Z,4.13
2018-09-26T20:39:06.873Z,3.77
2018-09-26T20:41:36.196Z,3.63
2018-09-26T20:44:05.516Z,3.70
2018-09-26T20:46:34.781Z,3.00
2018-09-26T20:49:04.269Z,3.00
2018-09-26T20:51:33.665Z,2.73
2018-09-26T20:54:02.969Z,3.10
2018-09-26T20:56:32.217Z,3.17
2018-09-26T20:59:01.545Z,3.10
2018-09-26T21:01:30.884Z,2.90
2018-09-26T21:04:00.235Z,3.37
2018-09-26T21:06:29.700Z,3.27
2018-09-26T21:08:58.949Z,3.70
2018-09-26T21:11:28.306Z,3.37
2018-09-26T21:13:57.562Z,3.43
2018-09-26T21:16:26.865Z,3.17
2018-09-26T21:18:56.117Z,3.53
2018-09-26T21:21:25.578Z,3.33
2018-09-26T21:23:54.849Z,5.10
2018-09-26T21:26:24.438Z,4.80
2018-09-26T21:28:53.746Z,5.13
2018-09-26T21:31:23.479Z,4.17
2018-09-26T21:33:52.824Z,4.03
2018-09-26T21:36:22.123Z,3.93
2018-09-26T21:38:51.348Z,4.27
2018-09-26T21:41:20.693Z,5.20
2018-09-26T21:43:49.941Z,4.00
2018-09-26T21:46:19.246Z,4.20
2018-09-26T21:48:48.516Z,5.80
2018-09-26T21:51:17.801Z,5.00
2018-09-26T21:53:47.173Z,5.50
2018-09-26T21:56:16.521Z,4.53
2018-09-26T21:58:45.775Z,3.67
2018-09-26T22:01:16.513Z,5.67
2018-09-26T22:03:45.853Z,4.93
2018-09-26T22:06:15.286Z,5.63
2018-09-26T22:08:44.572Z,5.07
2018-09-26T22:11:13.833Z,5.40
2018-09-26T22:13:43.128Z,5.40
2018-09-26T22:16:12.437Z,5.87
2018-09-26T22:18:41.737Z,6.00
2018-09-26T22:21:10.999Z,5.23
2018-09-26T22:23:40.246Z,6.73
2018-09-26T22:26:09.641Z,5.53
2018-09-26T22:28:38.931Z,5.00
2018-09-26T22:31:08.506Z,5.53
2018-09-26T22:33:37.790Z,5.63
2018-09-26T22:36:07.043Z,4.90
2018-09-26T22:38:36.325Z,5.50
2018-09-26T22:41:05.572Z,6.03
2018-09-26T22:43:34.841Z,6.60
2018-09-26T22:46:04.106Z,5.83
2018-09-26T22:48:33.382Z,6.30
2018-09-26T22:51:02.674Z,7.40
2018-09-26T22:53:32.780Z,6.57
2018-09-26T22:56:02.140Z,6.27
2018-09-26T22:58:31.445Z,6.47
2018-09-26T23:01:00.744Z,6.33
2018-09-26T23:03:30.198Z,6.50
2018-09-26T23:05:59.521Z,5.77
2018-09-26T23:08:28.842Z,6.07
2018-09-26T23:10:58.239Z,6.57
2018-09-26T23:13:27.562Z,5.80
2018-09-26T23:15:56.880Z,6.50
2018-09-26T23:18:26.151Z,6.50
2018-09-26T23:20:55.433Z,7.90
2018-09-26T23:23:24.712Z,6.97
2018-09-26T23:25:53.993Z,7.50
2018-09-26T23:28:23.269Z,6.00
2018-09-26T23:30:52.559Z,5.43
2018-09-26T23:33:21.823Z,6.47
2018-09-26T23:35:51.308Z,6.40
2018-09-26T23:38:20.601Z,6.57
2018-09-26T23:40:49.888Z,5.10
2018-09-26T23:43:19.235Z,5.50
2018-09-26T23:45:48.550Z,5.67
2018-09-26T23:48:17.805Z,6.23
2018-09-26T23:50:47.095Z,5.87
2018-09-26T23:53:19.111Z,6.00
2018-09-26T23:55:48.621Z,5.80
2018-09-26T23:58:17.909Z,5.83
